Time;durP1;ratioP1;P1;durP2;ratioP2;P2;SDS_P1;SDS_P2;PMS_P1;PMS_P2;Temp;Humidity;BMP_temperature;BMP_pressure;BME280_temperature;BME280_humidity;BME280_pressure;Samples;Min_cycle;Max_cycle;Signal;HPM_P1;HPM_P2
2023/02/10 02:09:21;;;;;;;76.10;31.00;;;;;;;-6.15;100.00;101192.65;103952;1298;1003049;-71
2023/02/10 02:11:55;;;;;;;79.00;32.90;;;;;;;-5.91;100.00;101096.23;105989;1288;232460;-72
2023/02/10 02:14:39;;;;;;;74.50;30.90;;;;;;;-5.84;100.00;101109.77;106299;1288;25457;-71
2023/02/10 02:17:53;;;;;;;60.40;26.40;;;;;;;-5.81;100.00;101115.63;106219;1288;26775;-72
2023/02/10 02:20:59;;;;;;;52.20;23.10;;;;;;;-5.77;100.00;101125.20;106256;1288;25333;-71
2023/02/10 02:23:34;;;;;;;43.50;19.70;;;;;;;-5.75;100.00;101136.56;106726;1281;25377;-72
2023/02/10 02:26:25;;;;;;;40.10;20.40;;;;;;;-5.74;100.00;101144.98;106693;1280;26214;-73
2023/02/10 02:28:54;;;;;;;54.00;24.00;;;;;;;-5.73;100.00;101147.20;106750;1267;25440;-72
2023/02/10 02:31:31;;;;;;;53.20;23.60;;;;;;;-5.71;100.00;101156.13;106806;1281;26582;-74
2023/02/10 02:34:02;;;;;;;53.30;23.60;;;;;;;-5.70;100.00;101155.41;105994;1281;1003811;-71
2023/02/10 02:36:34;;;;;;;45.70;21.70;;;;;;;-5.69;100.00;101159.59;106019;1281;1003519;-72
2023/02/10 02:39:04;;;;;;;38.00;18.40;;;;;;;-5.68;100.00;101167.83;106055;1281;1002877;-72
2023/02/10 02:41:34;;;;;;;38.40;17.80;;;;;;;-5.75;100.00;101172.05;106053;1281;1003009;-72
2023/02/10 02:44:05;;;;;;;40.10;18.40;;;;;;;-5.83;100.00;101180.16;106009;1281;1003076;-73
2023/02/10 02:46:46;;;;;;;40.60;17.90;;;;;;;-5.84;100.00;101189.14;106776;1281;24041;-73
2023/02/10 02:49:18;;;;;;;37.70;17.30;;;;;;;-5.84;100.00;101191.08;106165;1281;1003074;-72
2023/02/10 02:51:53;;;;;;;35.10;15.90;;;;;;;-5.83;100.00;101193.33;106195;1281;1003029;-75
2023/02/10 02:54:27;;;;;;;28.70;14.20;;;;;;;-5.81;100.00;101196.09;106896;1281;22691;-71
2023/02/10 02:57:11;;;;;;;35.70;13.90;;;;;;;-5.79;100.00;101198.33;106698;1281;25406;-72
2023/02/10 02:59:46;;;;;;;31.10;14.60;;;;;;;-5.77;100.00;101195.27;105819;1280;1003502;-71
2023/02/10 03:02:19;;;;;;;39.00;16.10;;;;;;;-5.75;100.00;101195.23;106655;1280;25504;-72
2023/02/10 03:04:49;;;;;;;41.80;18.20;;;;;;;-5.75;100.00;101199.26;106641;1257;24613;-73
2023/02/10 03:07:22;;;;;;;37.10;17.30;;;;;;;-5.74;100.00;101204.69;105890;1280;1002985;-73
2023/02/10 03:09:50;;;;;;;35.50;16.60;;;;;;;-5.71;100.00;101209.17;106657;1280;25494;-72
2023/02/10 03:12:22;;;;;;;43.70;18.60;;;;;;;-5.67;100.00;101206.45;106756;1280;25522;-72
2023/02/10 03:14:51;;;;;;;40.00;17.60;;;;;;;-5.64;100.00;101202.16;106757;1280;25373;-71
2023/02/10 03:17:19;;;;;;;42.10;18.60;;;;;;;-5.62;100.00;101205.46;105995;1280;1002972;-72
2023/02/10 03:19:48;;;;;;;41.00;17.90;;;;;;;-5.61;100.00;101211.92;106716;1280;23788;-72
2023/02/10 03:22:17;;;;;;;38.80;18.10;;;;;;;-5.63;100.00;101218.29;106609;1280;26636;-71
2023/02/10 03:24:45;;;;;;;33.20;16.00;;;;;;;-5.66;100.00;101222.07;106765;1280;25535;-71
2023/02/10 03:27:15;;;;;;;35.80;17.00;;;;;;;-5.66;100.00;101223.13;105990;1280;1003020;-72
2023/02/10 03:29:44;;;;;;;38.80;18.20;;;;;;;-5.66;100.00;101227.84;106734;1280;25261;-72
2023/02/10 03:32:12;;;;;;;44.30;19.50;;;;;;;-5.68;100.00;101230.19;106782;1280;25259;-71
2023/02/10 03:34:42;;;;;;;45.10;19.60;;;;;;;-5.74;100.00;101237.02;106035;1280;1003072;-73
2023/02/10 03:37:11;;;;;;;73.50;29.90;;;;;;;-5.79;100.00;101244.86;106068;1257;1002957;-71
2023/02/10 03:39:40;;;;;;;58.70;24.60;;;;;;;-5.83;100.00;101252.33;106771;1280;22597;-71
2023/02/10 03:42:09;;;;;;;63.50;26.40;;;;;;;-5.85;100.00;101253.95;106850;1280;25384;-72
2023/02/10 03:44:39;;;;;;;55.00;24.60;;;;;;;-5.84;100.00;101249.73;106702;1280;22730;-72
2023/02/10 03:47:08;;;;;;;56.90;24.90;;;;;;;-5.81;100.00;101247.90;106792;1280;25550;-72
2023/02/10 03:49:36;;;;;;;55.20;26.00;;;;;;;-5.79;100.00;101255.05;105920;1280;1003284;-72
2023/02/10 03:52:05;;;;;;;54.30;23.70;;;;;;;-5.76;100.00;101253.39;106757;1280;25317;-71
2023/02/10 03:54:34;;;;;;;50.60;22.90;;;;;;;-5.71;100.00;101251.16;106690;1280;25513;-71
2023/02/10 03:57:05;;;;;;;54.30;22.20;;;;;;;-5.67;100.00;101248.27;106801;1280;25605;-73
2023/02/10 03:59:34;;;;;;;47.70;22.40;;;;;;;-5.62;100.00;101248.30;106720;1280;24005;-71
2023/02/10 04:02:04;;;;;;;42.90;19.80;;;;;;;-5.60;100.00;101246.16;106836;1280;25504;-72
2023/02/10 04:04:33;;;;;;;41.30;19.30;;;;;;;-5.56;100.00;101246.92;106066;1280;1002899;-71
2023/02/10 04:07:02;;;;;;;49.60;20.00;;;;;;;-5.52;100.00;101243.67;105908;1280;1003575;-71
2023/02/10 04:09:32;;;;;;;41.30;19.50;;;;;;;-5.49;100.00;101237.27;106664;1280;25639;-72
2023/02/10 04:12:01;;;;;;;40.80;18.90;;;;;;;-5.48;100.00;101239.52;105979;1280;1003523;-72
2023/02/10 04:14:32;;;;;;;33.90;16.40;;;;;;;-5.49;100.00;101236.56;106001;1280;1002724;-72
2023/02/10 04:17:01;;;;;;;36.00;15.60;;;;;;;-5.50;100.00;101238.52;106711;1280;25451;-72
2023/02/10 04:19:30;;;;;;;35.60;14.90;;;;;;;-5.50;100.00;101246.45;105989;1280;1003023;-72
2023/02/10 04:21:58;;;;;;;32.90;15.70;;;;;;;-5.50;100.00;101250.48;106737;1280;22750;-73
2023/02/10 04:24:28;;;;;;;31.70;14.30;;;;;;;-5.49;100.00;101252.92;106095;1280;1003035;-72
2023/02/10 04:26:57;;;;;;;35.10;15.40;;;;;;;-5.49;100.00;101255.01;106125;1280;1003318;-72
2023/02/10 04:29:25;;;;;;;34.60;15.40;;;;;;;-5.48;100.00;101254.66;105915;1280;1003097;-72
2023/02/10 04:31:54;;;;;;;35.80;15.70;;;;;;;-5.47;100.00;101255.85;106687;1280;25484;-72
2023/02/10 04:34:23;;;;;;;30.40;12.40;;;;;;;-5.47;100.00;101254.61;106726;1280;22533;-72
2023/02/10 04:36:52;;;;;;;28.10;11.90;;;;;;;-5.46;100.00;101256.52;106673;1280;25479;-72
2023/02/10 04:39:21;;;;;;;31.30;12.50;;;;;;;-5.47;100.00;101260.77;106714;1280;23907;-71
2023/02/10 04:41:49;;;;;;;28.90;12.40;;;;;;;-5.49;100.00;101260.30;105949;1280;1003064;-71
2023/02/10 04:44:18;;;;;;;27.90;12.20;;;;;;;-5.49;100.00;101262.40;106027;1280;1002527;-72
2023/02/10 04:46:49;;;;;;;31.30;13.60;;;;;;;-5.46;100.00;101259.86;106059;1280;1003132;-72
2023/02/10 04:49:18;;;;;;;31.50;13.70;;;;;;;-5.44;100.00;101252.77;106323;1276;1002999;-72
2023/02/10 04:51:47;;;;;;;32.80;13.90;;;;;;;-5.42;100.00;101251.50;106291;1276;1003701;-71
2023/02/10 04:54:16;;;;;;;29.70;13.80;;;;;;;-5.38;100.00;101254.23;106553;1276;1014937;-72
2023/02/10 04:56:45;;;;;;;34.50;14.70;;;;;;;-5.36;100.00;101253.81;106985;1276;23885;-70
2023/02/10 04:59:14;;;;;;;32.20;14.40;;;;;;;-5.35;100.00;101257.80;106198;1253;1003052;-72
2023/02/10 05:01:42;;;;;;;30.40;13.50;;;;;;;-5.33;100.00;101261.98;106970;1276;25313;-71
2023/02/10 05:04:11;;;;;;;32.10;14.20;;;;;;;-5.30;100.00;101260.69;106991;1276;24233;-72
2023/02/10 05:06:40;;;;;;;34.70;16.10;;;;;;;-5.29;100.00;101258.55;106309;1276;1002698;-71
2023/02/10 05:09:09;;;;;;;30.20;13.10;;;;;;;-5.29;100.00;101261.88;106246;1276;1002948;-72
2023/02/10 05:11:39;;;;;;;33.20;14.30;;;;;;;-5.28;100.00;101262.92;107106;1276;22590;-72
2023/02/10 05:14:07;;;;;;;38.40;17.70;;;;;;;-5.28;100.00;101268.00;107210;1276;25530;-73
2023/02/10 05:16:36;;;;;;;40.50;18.60;;;;;;;-5.29;100.00;101269.96;106534;1276;1003714;-74
2023/02/10 05:19:05;;;;;;;33.10;14.90;;;;;;;-5.32;100.00;101277.61;106321;1276;1003167;-73
2023/02/10 05:21:34;;;;;;;37.60;16.50;;;;;;;-5.36;100.00;101280.86;106336;1276;1002682;-72
2023/02/10 05:24:03;;;;;;;31.90;13.90;;;;;;;-5.38;100.00;101281.96;106233;1276;1005685;-72
2023/02/10 05:26:33;;;;;;;31.50;15.30;;;;;;;-5.40;100.00;101289.06;106337;1276;1003734;-71
2023/02/10 05:29:01;;;;;;;34.80;15.50;;;;;;;-5.42;100.00;101294.04;106535;1276;1003287;-71
2023/02/10 05:31:32;;;;;;;37.70;15.50;;;;;;;-5.43;100.00;101298.09;107061;1276;25507;-72
2023/02/10 05:34:02;;;;;;;32.70;15.20;;;;;;;-5.41;100.00;101301.92;107045;1276;22552;-74
2023/02/10 05:36:32;;;;;;;39.90;17.10;;;;;;;-5.40;100.00;101303.48;107118;1276;25645;-71
2023/02/10 05:41:49;;;;;;;31.90;14.50;;;;;;;-5.39;100.00;101296.39;107166;1276;25676;-71
2023/02/10 05:44:19;;;;;;;29.70;14.50;;;;;;;-5.38;100.00;101302.89;106915;1276;26635;-70
2023/02/10 05:46:48;;;;;;;33.40;16.20;;;;;;;-5.38;100.00;101300.23;107102;1276;22508;-70
2023/02/10 05:49:17;;;;;;;33.40;15.00;;;;;;;-5.37;100.00;101308.84;107142;1276;23015;-73
2023/02/10 05:51:47;;;;;;;36.30;16.70;;;;;;;-5.38;100.00;101308.50;107172;1276;1002965;-74
2023/02/10 05:54:19;;;;;;;29.60;14.10;;;;;;;-5.35;100.00;101307.73;106370;1276;1002689;-71
2023/02/10 05:56:49;;;;;;;34.40;16.50;;;;;;;-5.32;100.00;101302.56;106997;1276;25308;-72
2023/02/10 05:59:18;;;;;;;38.00;15.10;;;;;;;-5.32;100.00;101302.56;107020;1276;25628;-72
2023/02/10 06:01:47;;;;;;;32.90;14.80;;;;;;;-5.31;100.00;101302.71;106303;1276;1003339;-71
2023/02/10 06:04:16;;;;;;;36.90;17.30;;;;;;;-5.31;100.00;101301.84;107080;1276;25435;-71
2023/02/10 06:06:46;;;;;;;33.40;16.50;;;;;;;-5.30;100.00;101303.91;106463;1276;1003057;-72
2023/02/10 06:09:16;;;;;;;35.60;16.10;;;;;;;-5.30;100.00;101303.75;106208;1277;1016008;-71
2023/02/10 06:11:51;;;;;;;31.70;14.40;;;;;;;-5.29;100.00;101307.77;107109;1277;25513;-72
2023/02/10 06:14:20;;;;;;;35.10;14.00;;;;;;;-5.28;100.00;101308.44;106308;1277;1003154;-72
2023/02/10 06:16:49;;;;;;;30.20;13.50;;;;;;;-5.25;100.00;101310.65;106847;1277;22568;-72
2023/02/10 06:19:19;;;;;;;32.10;13.60;;;;;;;-5.19;100.00;101305.57;106947;1274;26533;-71
2023/02/10 06:21:48;;;;;;;31.80;14.40;;;;;;;-5.13;100.00;101301.20;106220;1271;1003296;-72
2023/02/10 06:24:18;;;;;;;47.70;19.00;;;;;;;-5.05;100.00;101295.36;106888;1271;25431;-71
2023/02/10 06:26:46;;;;;;;39.10;16.70;;;;;;;-4.99;100.00;101291.85;106918;1271;26599;-72
2023/02/10 06:29:17;;;;;;;38.80;17.30;;;;;;;-4.94;100.00;101287.33;106153;1278;1002774;-73
2023/02/10 06:31:45;;;;;;;38.40;17.10;;;;;;;-4.91;100.00;101288.48;106801;1271;25502;-71
2023/02/10 06:34:14;;;;;;;37.50;16.60;;;;;;;-4.88;100.00;101286.63;106797;1278;24292;-71
2023/02/10 06:36:43;;;;;;;34.20;15.90;;;;;;;-4.85;100.00;101286.04;106121;1274;1003411;-72
2023/02/10 06:39:12;;;;;;;37.40;17.40;;;;;;;-4.82;100.00;101279.27;106843;1278;22603;-71
2023/02/10 06:41:41;;;;;;;64.60;27.80;;;;;;;-4.76;100.00;101278.20;106075;1271;1002999;-73
2023/02/10 06:44:11;;;;;;;46.30;22.00;;;;;;;-4.72;100.00;101278.10;106287;1271;1002932;-73
2023/02/10 06:46:40;;;;;;;45.30;20.80;;;;;;;-4.70;100.00;101279.64;106795;1270;24097;-71
2023/02/10 06:49:08;;;;;;;35.90;17.60;;;;;;;-4.68;100.00;101278.52;106156;1271;1003229;-71
2023/02/10 06:51:37;;;;;;;34.90;16.60;;;;;;;-4.65;100.00;101281.43;106195;1278;1003486;-72
2023/02/10 06:54:07;;;;;;;30.50;14.70;;;;;;;-4.62;100.00;101277.80;107025;1271;26541;-72
2023/02/10 06:56:36;;;;;;;36.10;15.20;;;;;;;-4.60;100.00;101277.23;107062;1278;22538;-75
2023/02/10 06:59:05;;;;;;;32.00;15.50;;;;;;;-4.55;100.00;101277.63;106350;1270;1015650;-75
2023/02/10 07:01:34;;;;;;;36.80;16.30;;;;;;;-4.47;100.00;101270.89;107495;1274;26038;-76
2023/02/10 07:04:03;;;;;;;41.10;22.80;;;;;;;-4.41;100.00;101264.01;107204;1270;22613;-69
2023/02/10 07:06:32;;;;;;;37.70;21.60;;;;;;;-4.35;100.00;101260.13;106923;1271;1003616;-72
2023/02/10 07:09:03;;;;;;;43.10;25.00;;;;;;;-4.30;100.00;101261.58;107435;1274;22651;-72
2023/02/10 07:11:34;;;;;;;38.60;20.40;;;;;;;-4.27;100.00;101256.38;107633;1277;25438;-72
2023/02/10 07:14:03;;;;;;;35.70;17.60;;;;;;;-4.25;100.00;101256.84;107351;1277;26520;-73
2023/02/10 07:16:33;;;;;;;30.80;14.50;;;;;;;-4.20;100.00;101252.30;106403;1277;1003449;-68
2023/02/10 07:19:03;;;;;;;32.40;14.80;;;;;;;-4.16;100.00;101249.34;106302;1277;1003657;-67
2023/02/10 07:21:34;;;;;;;32.20;15.40;;;;;;;-4.13;100.00;101248.72;106919;1277;25434;-73
2023/02/10 07:24:03;;;;;;;28.40;13.50;;;;;;;-4.14;100.00;101249.13;106269;1277;1003122;-68
2023/02/10 07:26:32;;;;;;;30.10;14.10;;;;;;;-4.12;100.00;101248.50;107297;1277;26492;-69
2023/02/10 07:29:00;;;;;;;30.90;15.90;;;;;;;-4.09;100.00;101244.02;107170;1261;24227;-68
2023/02/10 07:31:34;;;;;;;27.80;13.50;;;;;;;-4.05;100.00;101237.54;106264;1277;1003041;-68
2023/02/10 07:34:03;;;;;;;26.20;12.70;;;;;;;-4.00;100.00;101236.33;106575;1277;1003398;-69
2023/02/10 07:36:32;;;;;;;31.20;16.00;;;;;;;-3.93;100.00;101240.17;106509;1256;1003787;-69
2023/02/10 07:39:02;;;;;;;32.30;16.50;;;;;;;-3.85;100.00;101235.67;107196;1277;23697;-70
2023/02/10 07:41:31;;;;;;;25.30;12.70;;;;;;;-3.78;100.00;101228.41;106900;1277;23037;-69
2023/02/10 07:43:59;;;;;;;26.40;11.50;;;;;;;-3.73;100.00;101229.31;107130;1274;23838;-68
2023/02/10 07:51:49;;;;;;;23.40;10.20;;;;;;;-3.44;100.00;101203.64;107441;1270;22541;-71
2023/02/10 07:54:18;;;;;;;26.10;11.60;;;;;;;-3.40;100.00;101208.29;107425;1277;22559;-73
2023/02/10 07:56:47;;;;;;;23.90;9.90;;;;;;;-3.33;100.00;101212.42;107322;1271;26560;-69
2023/02/10 07:59:16;;;;;;;28.00;11.80;;;;;;;-3.36;100.00;101221.17;106923;1270;23407;-69
2023/02/10 08:01:46;;;;;;;27.00;13.10;;;;;;;-3.42;100.00;101231.63;106387;1277;1003400;-70
2023/02/10 08:04:15;;;;;;;32.80;16.10;;;;;;;-3.40;100.00;101240.72;107053;1277;25407;-69
2023/02/10 08:06:44;;;;;;;33.00;16.50;;;;;;;-3.44;100.00;101252.31;107188;1277;26543;-67
2023/02/10 08:09:17;;;;;;;32.20;16.30;;;;;;;-3.42;100.00;101256.30;107284;1277;26511;-69
2023/02/10 08:11:45;;;;;;;29.50;13.60;;;;;;;-3.40;100.00;101257.83;106414;1277;1003386;-70
2023/02/10 08:14:14;;;;;;;27.20;11.60;;;;;;;-3.33;100.00;101257.04;107305;1277;25437;-69
2023/02/10 08:16:42;;;;;;;23.40;10.40;;;;;;;-3.24;100.00;101247.41;106380;1277;1002667;-70
2023/02/10 08:19:11;;;;;;;25.90;10.10;;;;;;;-3.13;100.00;101242.77;107313;1277;25436;-71
2023/02/10 08:21:41;;;;;;;23.70;10.10;;;;;;;-2.96;100.00;101234.43;107273;1277;25490;-70
2023/02/10 08:24:11;;;;;;;28.10;11.70;;;;;;;-2.77;100.00;101224.92;107084;1274;24194;-70
2023/02/10 08:26:45;;;;;;;27.90;12.10;;;;;;;-2.60;100.00;101217.75;106330;1277;1003306;-68
2023/02/10 08:29:16;;;;;;;26.40;11.00;;;;;;;-2.47;100.00;101210.55;107113;1277;23897;-70
2023/02/10 08:31:50;;;;;;;20.90;9.70;;;;;;;-2.36;100.00;101205.34;106204;1274;1003358;-72
2023/02/10 08:34:21;;;;;;;23.20;10.70;;;;;;;-2.26;100.00;101210.61;106552;1270;1002902;-76
2023/02/10 08:36:53;;;;;;;25.10;11.10;;;;;;;-2.18;100.00;101216.14;107197;1277;1003103;-75
2023/02/10 08:39:22;;;;;;;24.30;10.80;;;;;;;-2.03;100.00;101216.56;108018;1276;22548;-76
2023/02/10 08:41:50;;;;;;;28.10;10.20;;;;;;;-1.86;100.00;101208.30;107445;1270;1003178;-75
2023/02/10 08:44:19;;;;;;;24.50;9.70;;;;;;;-1.78;100.00;101214.14;107807;1274;25429;-75
2023/02/10 08:46:47;;;;;;;25.80;12.30;;;;;;;-1.74;100.00;101222.13;107355;1273;23244;-70
2023/02/10 08:49:16;;;;;;;25.40;11.40;;;;;;;-1.80;100.00;101246.24;107102;1272;1002360;-77
2023/02/10 08:51:45;;;;;;;25.50;11.20;;;;;;;-1.94;100.00;101275.60;107096;1274;1002919;-76
2023/02/10 08:54:14;;;;;;;23.90;11.20;;;;;;;-1.95;100.00;101278.81;107869;1274;22807;-78
2023/02/10 08:56:45;;;;;;;18.30;8.50;;;;;;;-1.93;100.00;101282.11;107207;1271;1003498;-76
2023/02/10 08:59:14;;;;;;;18.60;7.50;;;;;;;-1.91;100.00;101285.92;107202;1277;1002942;-76
2023/02/10 09:01:42;;;;;;;42.50;21.50;;;;;;;-1.94;100.00;101295.73;107921;1277;22530;-77
2023/02/10 09:04:11;;;;;;;22.30;10.80;;;;;;;-1.93;100.00;101307.21;107966;1271;22672;-77
2023/02/10 09:06:42;;;;;;;20.80;8.80;;;;;;;-1.83;100.00;101308.24;107901;1271;23075;-75
2023/02/10 09:09:13;;;;;;;17.20;7.80;;;;;;;-1.59;100.00;101298.61;107999;1269;22586;-77
2023/02/10 09:11:42;;;;;;;15.90;6.70;;;;;;;-1.39;100.00;101287.86;108066;1274;25347;-75
2023/02/10 09:14:14;;;;;;;15.20;7.40;;;;;;;-1.27;100.00;101289.01;107464;1270;23775;-75
2023/02/10 09:16:43;;;;;;;15.60;7.50;;;;;;;-1.07;100.00;101284.23;108050;1277;25447;-76
2023/02/10 09:19:13;;;;;;;13.10;6.40;;;;;;;-0.73;100.00;101266.84;108004;1277;25310;-76
2023/02/10 09:21:42;;;;;;;18.00;7.70;;;;;;;-0.63;100.00;101273.83;107656;1270;25912;-75
2023/02/10 09:24:16;;;;;;;20.30;8.40;;;;;;;-0.93;100.00;101310.55;107835;1274;22547;-75
2023/02/10 09:26:45;;;;;;;20.40;8.20;;;;;;;-1.18;100.00;101336.02;107154;1277;1003091;-75
2023/02/10 09:29:13;;;;;;;17.70;7.60;;;;;;;-1.35;100.00;101356.90;107777;1271;22571;-75
2023/02/10 09:31:49;;;;;;;23.60;10.40;;;;;;;-1.33;100.00;101356.80;108367;1274;26562;-75
2023/02/10 09:34:23;;;;;;;24.00;10.30;;;;;;;-1.14;100.00;101341.14;106762;1274;1002909;-71
2023/02/10 09:37:01;;;;;;;18.60;8.30;;;;;;;-0.75;100.00;101318.80;107894;1273;22632;-77
2023/02/10 09:39:31;;;;;;;22.50;10.70;;;;;;;-0.34;100.00;101304.95;108165;1277;22651;-76
2023/02/10 09:42:27;;;;;;;19.40;8.40;;;;;;;-0.00;100.00;101297.34;107671;1276;25314;-69
2023/02/10 09:45:11;;;;;;;23.70;8.90;;;;;;;0.11;100.00;101315.23;107333;1272;22529;-69
2023/02/10 09:47:50;;;;;;;15.90;7.20;;;;;;;0.13;100.00;101337.84;106341;1270;1003326;-76
2023/02/10 09:50:30;;;;;;;14.80;7.20;;;;;;;0.24;100.00;101339.30;107314;1273;1002912;-76
2023/02/10 09:53:09;;;;;;;17.40;6.40;;;;;;;0.36;100.00;101346.88;108240;1273;22565;-75
2023/02/10 09:55:45;;;;;;;15.80;7.50;;;;;;;0.53;100.00;101349.78;108023;1272;1002445;-76
2023/02/10 09:58:20;;;;;;;15.00;7.50;;;;;;;0.44;100.00;101377.56;107361;1271;1003059;-69
2023/02/10 10:00:55;;;;;;;18.60;8.60;;;;;;;0.48;100.00;101369.02;106339;1271;1002854;-70
2023/02/10 10:11:49;;;;;;;21.30;10.00;;;;;;;0.90;100.00;101398.07;104299;1290;1003362;-76
2023/02/10 10:14:18;;;;;;;16.80;7.50;;;;;;;0.74;100.00;101348.23;105380;1281;1003063;-75
2023/02/10 10:17:01;;;;;;;17.80;8.60;;;;;;;0.42;100.00;101361.14;105189;1284;1003658;-76
2023/02/10 10:19:33;;;;;;;17.80;8.40;;;;;;;0.24;100.00;101357.02;105253;1282;1003535;-75
2023/02/10 10:22:24;;;;;;;17.10;7.20;;;;;;;0.21;100.00;101347.39;105991;1286;22552;-74
2023/02/10 10:25:13;;;;;;;17.00;7.20;;;;;;;0.18;100.00;101342.06;106055;1286;219079;-75
2023/02/10 10:28:19;;;;;;;16.70;7.20;;;;;;;0.32;100.00;101331.08;106264;1280;25367;-74
2023/02/10 10:30:47;;;;;;;17.60;7.80;;;;;;;0.42;100.00;101322.11;106189;1286;26921;-75
2023/02/10 10:33:20;;;;;;;16.40;7.90;;;;;;;0.45;100.00;101319.85;105405;1280;1003062;-75
2023/02/10 10:35:47;;;;;;;16.80;7.30;;;;;;;0.21;100.00;101327.38;106077;1280;26521;-78
2023/02/10 10:38:20;;;;;;;17.50;7.40;;;;;;;-0.03;100.00;101328.46;105580;1283;1003714;-76
2023/02/10 10:40:50;;;;;;;14.40;7.10;;;;;;;0.02;100.00;101316.20;105437;1279;1004972;-74
2023/02/10 10:43:21;;;;;;;16.10;7.80;;;;;;;0.16;100.00;101306.48;106527;1278;25586;-74
2023/02/10 10:45:51;;;;;;;16.80;8.00;;;;;;;0.10;100.00;101307.12;105965;1272;1003719;-76
2023/02/10 10:48:26;;;;;;;15.50;7.00;;;;;;;-0.08;100.00;101314.89;106455;1272;24398;-76
2023/02/10 10:50:58;;;;;;;15.50;7.50;;;;;;;-0.41;100.00;101324.91;106634;1272;25432;-76
2023/02/10 10:53:49;;;;;;;15.90;6.60;;;;;;;-0.68;100.00;101316.72;106666;1272;25422;-75
2023/02/10 10:56:29;;;;;;;15.00;7.30;;;;;;;-0.72;100.00;101304.68;106666;1275;25246;-75
2023/02/10 10:58:58;;;;;;;16.10;7.70;;;;;;;-0.43;100.00;101281.94;106636;1271;25364;-76
2023/02/10 11:01:34;;;;;;;21.10;8.70;;;;;;;-0.18;100.00;101268.02;106206;1272;1003511;-80
2023/02/10 11:04:25;;;;;;;17.30;6.90;;;;;;;0.04;100.00;101255.80;106886;1278;26522;-74
2023/02/10 11:06:56;;;;;;;18.70;8.00;;;;;;;0.27;100.00;101243.88;106804;1278;25306;-76
2023/02/10 11:09:32;;;;;;;15.90;7.60;;;;;;;0.38;100.00;101238.91;106905;1270;22957;-75
2023/02/10 11:12:23;;;;;;;16.20;8.20;;;;;;;0.27;100.00;101250.98;106757;1278;22533;-76
2023/02/10 11:14:53;;;;;;;16.70;7.50;;;;;;;0.04;100.00;101263.60;106084;1278;1003055;-74
2023/02/10 11:17:25;;;;;;;18.70;8.20;;;;;;;-0.14;100.00;101259.85;106000;1277;1003892;-76
2023/02/10 11:19:57;;;;;;;17.70;7.60;;;;;;;-0.17;100.00;101257.01;107036;1275;25374;-73
2023/02/10 11:22:24;;;;;;;17.70;8.10;;;;;;;-0.18;100.00;101248.17;106505;1278;25381;-74
2023/02/10 11:24:57;;;;;;;24.70;10.60;;;;;;;-0.23;100.00;101234.95;105757;1270;1003660;-73
2023/02/10 11:27:25;;;;;;;20.30;8.80;;;;;;;-0.29;100.00;101223.90;105999;1270;1003068;-69
2023/02/10 11:29:54;;;;;;;19.30;9.40;;;;;;;-0.50;100.00;101231.96;108741;1278;25445;-67
2023/02/10 11:32:33;;;;;;;21.10;10.10;;;;;;;-0.67;100.00;101233.80;106964;1270;24329;-67
2023/02/10 11:35:02;;;;;;;20.50;9.10;;;;;;;-0.71;100.00;101230.63;106863;1278;25603;-66
2023/02/10 11:37:35;;;;;;;21.90;10.10;;;;;;;-0.62;100.00;101224.55;106672;1271;22556;-74
2023/02/10 11:40:25;;;;;;;24.20;10.20;;;;;;;-0.52;100.00;101217.50;106725;1276;22656;-77
2023/02/10 11:42:58;;;;;;;21.00;8.50;;;;;;;-0.63;100.00;101221.41;106457;1272;22522;-73
2023/02/10 11:45:30;;;;;;;20.40;9.20;;;;;;;-0.80;100.00;101225.36;106468;1272;1003211;-75
2023/02/10 11:48:13;;;;;;;20.10;8.30;;;;;;;-0.95;100.00;101232.39;105979;1275;1003469;-75
2023/02/10 11:50:40;;;;;;;18.90;8.60;;;;;;;-1.11;100.00;101235.05;105924;1272;1002538;-77
2023/02/10 11:53:27;;;;;;;22.60;10.00;;;;;;;-1.14;100.00;101224.73;106645;1274;26623;-76
2023/02/10 11:55:59;;;;;;;19.30;9.20;;;;;;;-1.12;100.00;101211.90;106734;1275;22526;-75
2023/02/10 11:59:03;;;;;;;19.60;9.20;;;;;;;-1.21;100.00;101213.35;106649;1275;24711;-70
2023/02/10 12:01:40;;;;;;;21.80;9.40;;;;;;;-1.35;100.00;101213.05;106720;1271;25314;-69
2023/02/10 12:04:41;;;;;;;20.00;8.50;;;;;;;-1.34;100.00;101205.25;106009;1271;1003844;-69
2023/02/10 12:07:24;;;;;;;20.10;9.20;;;;;;;-1.27;100.00;101193.60;105918;1270;1003026;-76
2023/02/10 12:09:54;;;;;;;18.70;8.30;;;;;;;-1.07;100.00;101177.69;106704;1270;25358;-74
2023/02/10 12:12:26;;;;;;;20.80;9.50;;;;;;;-0.88;100.00;101170.98;106648;1278;27180;-75
2023/02/10 12:14:57;;;;;;;17.80;8.30;;;;;;;-0.67;100.00;101163.31;106757;1278;24317;-75
2023/02/10 12:17:40;;;;;;;19.40;8.60;;;;;;;-0.56;100.00;101159.45;106805;1275;22518;-67
2023/02/10 12:20:20;;;;;;;17.10;8.30;;;;;;;-0.61;100.00;101174.36;106760;1271;25309;-70
2023/02/10 12:23:06;;;;;;;18.50;8.60;;;;;;;-0.59;100.00;101182.42;106764;1278;25501;-68
2023/02/10 12:25:34;;;;;;;18.00;8.00;;;;;;;-0.48;100.00;101177.64;105917;1278;1003506;-69
2023/02/10 12:28:04;;;;;;;19.60;9.00;;;;;;;-0.35;100.00;101174.20;106759;1270;25450;-78
2023/02/10 12:30:49;;;;;;;19.30;8.40;;;;;;;-0.24;100.00;101173.14;105921;1270;1003073;-75
2023/02/10 12:34:08;;;;;;;19.30;8.50;;;;;;;-0.15;100.00;101183.18;106629;1272;25539;-76
2023/02/10 12:37:23;;;;;;;19.00;8.80;;;;;;;-0.24;100.00;101196.92;106458;1270;24360;-77
2023/02/10 12:40:03;;;;;;;17.10;8.00;;;;;;;-0.31;100.00;101210.31;105552;1270;1003377;-75
2023/02/10 12:42:42;;;;;;;23.60;9.30;;;;;;;-0.27;100.00;101208.71;106822;1272;25779;-70
2023/02/10 12:45:42;;;;;;;23.90;10.00;;;;;;;-0.20;100.00;101207.67;106793;1270;24239;-66
2023/02/10 12:48:35;;;;;;;33.00;14.00;;;;;;;0.16;100.00;101187.17;105823;1271;1003216;-65
2023/02/10 12:51:54;;;;;;;27.60;11.40;;;;;;;0.58;100.00;101177.08;106833;1277;25294;-66
2023/02/10 12:54:56;;;;;;;18.50;8.90;;;;;;;0.96;100.00;101181.48;106987;1283;25375;-65
2023/02/10 12:57:37;;;;;;;20.20;8.80;;;;;;;1.06;100.00;101202.39;105866;1278;1003302;-67
2023/02/10 13:00:06;;;;;;;17.40;8.50;;;;;;;1.27;100.00;101199.73;107118;1278;1002860;-63
2023/02/10 13:02:45;;;;;;;17.90;7.80;;;;;;;1.48;100.00;101187.20;106734;1278;25386;-66
2023/02/10 13:05:17;;;;;;;17.90;8.40;;;;;;;1.74;100.00;101182.39;105858;1278;1003820;-66
2023/02/10 13:07:50;;;;;;;19.60;8.70;;;;;;;1.93;100.00;101179.33;105767;1278;1003611;-67
2023/02/10 13:10:38;;;;;;;17.00;8.30;;;;;;;1.98;100.00;101172.68;107841;1277;1003037;-66
2023/02/10 13:13:15;;;;;;;20.00;8.40;;;;;;;1.96;100.00;101173.52;105756;1278;1002936;-66
2023/02/10 13:15:47;;;;;;;19.90;8.70;;;;;;;1.79;100.00;101199.02;106727;1278;25419;-66
2023/02/10 13:18:22;;;;;;;19.60;10.00;;;;;;;1.66;100.00;101209.48;105898;1278;1003066;-64
2023/02/10 13:20:58;;;;;;;19.20;8.80;;;;;;;1.77;100.00;101208.20;106401;1278;26513;-66
2023/02/10 13:23:44;;;;;;;19.50;9.00;;;;;;;1.78;100.00;101207.40;106900;1271;23890;-65
2023/02/10 13:26:43;;;;;;;17.70;8.90;;;;;;;1.68;100.00;101211.52;106709;1271;22540;-66
2023/02/10 13:29:29;;;;;;;20.30;8.90;;;;;;;1.72;100.00;101202.92;105919;1277;1003278;-66
2023/02/10 13:32:14;;;;;;;18.50;8.10;;;;;;;1.74;100.00;101192.84;106708;1277;26542;-66
2023/02/10 13:34:46;;;;;;;20.40;9.00;;;;;;;1.63;100.00;101194.02;105983;1272;1003784;-74
2023/02/10 13:37:27;;;;;;;18.10;9.10;;;;;;;1.63;100.00;101194.38;106704;1270;26532;-73
2023/02/10 13:39:56;;;;;;;23.50;9.70;;;;;;;1.72;100.00;101181.61;105980;1271;1003297;-65
2023/02/10 13:42:33;;;;;;;21.20;9.30;;;;;;;1.67;100.00;101180.26;106656;1275;25310;-72
2023/02/10 13:45:04;;;;;;;19.70;8.80;;;;;;;1.54;100.00;101176.92;106519;1275;25236;-74